Time;durP1;ratioP1;P1;durP2;ratioP2;P2;SDS_P1;SDS_P2;PMS_P1;PMS_P2;Temp;Humidity;BMP_temperature;BMP_pressure;BME280_temperature;BME280_humidity;BME280_pressure;Samples;Min_cycle;Max_cycle;Signal;HPM_P1;HPM_P2
2022/09/11 00:01:14;;;;;;;10.85;6.25;;;13.90;99.90;;;;;;5033047;28;20045;-67
2022/09/11 00:03:44;;;;;;;12.38;6.40;;;13.90;99.90;;;;;;5033142;28;20041;-66
2022/09/11 00:06:12;;;;;;;13.00;6.47;;;13.90;99.90;;;;;;5010391;28;20042;-67
2022/09/11 00:08:40;;;;;;;11.85;6.93;;;13.80;99.90;;;;;;5013568;28;20029;-66
2022/09/11 00:11:16;;;;;;;10.25;6.25;;;13.80;99.90;;;;;;5013565;28;20139;-66
2022/09/11 00:13:43;;;;;;;10.57;6.55;;;13.80;99.90;;;;;;5013549;28;20053;-67
2022/09/11 00:16:28;;;;;;;15.10;7.43;;;13.70;99.90;;;;;;5013554;28;20105;-67
2022/09/11 00:18:56;;;;;;;11.25;6.65;;;13.70;99.90;;;;;;5013239;28;20046;-67
2022/09/11 00:21:22;;;;;;;13.50;6.70;;;13.60;99.90;;;;;;5013446;28;20034;-67
2022/09/11 00:23:48;;;;;;;11.27;6.18;;;13.60;99.90;;;;;;5013193;28;20409;-67
2022/09/11 00:26:18;;;;;;;12.20;6.60;;;13.60;99.90;;;;;;5011806;28;20127;-67
2022/09/11 00:28:44;;;;;;;12.68;6.90;;;13.60;99.90;;;;;;5013307;28;20075;-67
2022/09/11 00:31:19;;;;;;;14.07;7.32;;;13.70;99.90;;;;;;5009173;28;20184;-67
2022/09/11 00:33:45;;;;;;;12.52;7.22;;;13.60;99.90;;;;;;5013217;28;20115;-66
2022/09/11 00:36:31;;;;;;;14.43;7.10;;;13.60;99.90;;;;;;5033081;28;20113;-67
2022/09/11 00:38:57;;;;;;;13.27;6.57;;;13.60;99.90;;;;;;5031822;28;20405;-67
2022/09/11 00:41:29;;;;;;;10.55;7.25;;;13.60;99.90;;;;;;5032966;28;20392;-67
2022/09/11 00:43:55;;;;;;;15.23;7.68;;;13.50;99.90;;;;;;5033018;28;20544;-66
2022/09/11 00:46:30;;;;;;;16.92;7.28;;;13.50;99.90;;;;;;5032885;28;20141;-67
2022/09/11 00:48:57;;;;;;;11.32;6.15;;;13.60;99.90;;;;;;5031357;28;20053;-67
2022/09/11 00:51:28;;;;;;;11.07;7.13;;;13.50;99.90;;;;;;5032918;28;20044;-67
2022/09/11 00:53:55;;;;;;;;;;;13.60;99.90;;;;;;5031796;28;20045;-67
2022/09/11 00:56:24;;;;;;;19.73;7.88;;;13.60;99.90;;;;;;5032594;28;19924;-66
2022/09/11 00:58:53;;;;;;;14.07;7.90;;;13.60;99.90;;;;;;5031335;28;20050;-67
2022/09/11 01:01:19;;;;;;;12.15;7.43;;;13.60;99.90;;;;;;5034460;28;20095;-67
2022/09/11 01:03:45;;;;;;;15.43;8.05;;;13.60;99.90;;;;;;5035381;28;20037;-67
2022/09/11 01:06:11;;;;;;;12.25;7.18;;;13.60;99.90;;;;;;5018817;28;20049;-67
2022/09/11 01:08:37;;;;;;;20.33;7.78;;;13.60;99.90;;;;;;5034941;28;20037;-66
2022/09/11 01:11:03;;;;;;;14.77;8.57;;;13.60;99.90;;;;;;5036315;28;20135;-66
2022/09/11 01:14:14;;;;;;;13.80;7.57;;;13.60;99.90;;;;;;5036567;28;20037;-67
2022/09/11 01:16:52;;;;;;;15.77;8.63;;;13.70;99.90;;;;;;5003811;28;20077;-67
2022/09/11 01:19:42;;;;;;;12.13;7.90;;;13.60;99.90;;;;;;5036507;28;20052;-67
2022/09/11 01:22:30;;;;;;;17.00;8.55;;;13.70;99.90;;;;;;5036461;28;20077;-66
2022/09/11 01:25:16;;;;;;;14.52;8.70;;;13.70;99.90;;;;;;5036394;28;20392;-66
2022/09/11 01:27:53;;;;;;;14.00;7.65;;;13.80;99.90;;;;;;5018001;28;20063;-67
2022/09/11 01:30:21;;;;;;;14.27;8.45;;;13.80;99.90;;;;;;5016112;28;20133;-67
2022/09/11 01:32:59;;;;;;;16.98;9.05;;;13.80;99.90;;;;;;4998523;28;20037;-67
2022/09/11 01:35:41;;;;;;;13.98;7.65;;;13.90;99.90;;;;;;5016500;28;20038;-67
2022/09/11 01:38:09;;;;;;;16.95;9.50;;;13.90;99.90;;;;;;5016394;28;20081;-67
2022/09/11 01:40:53;;;;;;;18.00;8.82;;;13.90;99.90;;;;;;4998480;28;20050;-67
2022/09/11 01:43:25;;;;;;;13.73;7.95;;;13.90;99.90;;;;;;4998604;28;20398;-67
2022/09/11 01:45:53;;;;;;;17.58;8.70;;;13.90;99.90;;;;;;4998346;28;20060;-67
2022/09/11 01:48:24;;;;;;;16.48;8.50;;;13.90;99.90;;;;;;4998541;28;20048;-66
2022/09/11 01:50:53;;;;;;;14.48;8.43;;;13.90;99.90;;;;;;4998285;28;20133;-67
2022/09/11 01:53:21;;;;;;;16.35;8.35;;;13.90;99.90;;;;;;4998527;28;20489;-67
2022/09/11 01:55:56;;;;;;;14.07;8.40;;;13.90;99.90;;;;;;4998838;28;20045;-67
2022/09/11 01:58:27;;;;;;;16.38;8.43;;;14.00;99.90;;;;;;5015980;28;20041;-67
2022/09/11 02:00:55;;;;;;;;;;;13.90;99.90;;;;;;4998535;28;20053;-67
2022/09/11 02:03:27;;;;;;;12.57;7.30;;;14.00;99.90;;;;;;5015817;28;20015;-67
2022/09/11 02:05:58;;;;;;;11.05;7.00;;;13.90;99.90;;;;;;5015926;28;20511;-67
2022/09/11 02:08:36;;;;;;;16.50;8.10;;;13.90;99.90;;;;;;4997902;28;20041;-67
2022/09/11 02:11:07;;;;;;;10.50;6.78;;;13.90;99.90;;;;;;5015376;28;20053;-67
2022/09/11 02:14:06;;;;;;;13.13;7.78;;;13.80;99.90;;;;;;4997010;28;20037;-67
2022/09/11 02:16:45;;;;;;;13.52;7.43;;;13.80;99.90;;;;;;4998090;28;20486;-67
2022/09/11 02:19:15;;;;;;;13.27;7.78;;;13.80;99.90;;;;;;5015641;28;20050;-67
2022/09/11 02:21:42;;;;;;;15.93;8.20;;;13.70;99.90;;;;;;5015330;28;20054;-67
2022/09/11 02:24:09;;;;;;;11.48;7.18;;;13.70;99.90;;;;;;5015461;28;20030;-67
2022/09/11 02:26:41;;;;;;;15.35;8.10;;;13.70;99.90;;;;;;5022541;28;20143;-66
2022/09/11 02:29:07;;;;;;;14.85;8.90;;;13.70;99.90;;;;;;5035236;28;20128;-66
2022/09/11 02:31:34;;;;;;;14.52;7.85;;;13.60;99.90;;;;;;5017365;28;20404;-66
2022/09/11 02:34:00;;;;;;;17.48;8.15;;;13.60;99.90;;;;;;5032053;28;20042;-65
2022/09/11 02:36:40;;;;;;;13.10;7.65;;;13.60;99.90;;;;;;5014968;28;20050;-65
2022/09/11 02:39:21;;;;;;;14.32;7.43;;;13.50;99.90;;;;;;5015101;28;20033;-66
2022/09/11 02:42:06;;;;;;;11.25;7.25;;;13.50;99.90;;;;;;4997349;28;20133;-65
2022/09/11 02:44:34;;;;;;;12.43;7.22;;;13.50;99.90;;;;;;5015106;28;20133;-65
2022/09/11 02:47:31;;;;;;;17.38;7.65;;;13.50;99.90;;;;;;5015064;28;20374;-66
2022/09/11 02:50:21;;;;;;;12.73;6.93;;;13.40;99.90;;;;;;4974955;28;20054;-66
2022/09/11 02:53:01;;;;;;;14.27;8.07;;;13.40;99.90;;;;;;5014953;28;20466;-66
2022/09/11 02:56:02;;;;;;;10.48;6.70;;;13.40;99.90;;;;;;5014864;28;20042;-65
2022/09/11 02:58:36;;;;;;;10.10;6.88;;;13.40;99.90;;;;;;5001331;28;20048;-66
2022/09/11 03:01:03;;;;;;;12.10;7.30;;;13.30;99.90;;;;;;5014816;28;20052;-65
2022/09/11 03:03:43;;;;;;;11.90;6.45;;;13.30;99.90;;;;;;5014733;28;20053;-65
2022/09/11 03:06:14;;;;;;;13.40;6.47;;;13.20;99.90;;;;;;4993766;28;20482;-65
2022/09/11 03:08:40;;;;;;;11.32;6.38;;;13.20;99.90;;;;;;4994862;28;20277;-66
2022/09/11 03:11:06;;;;;;;9.45;6.32;;;13.20;99.90;;;;;;4994725;28;20039;-65
2022/09/11 03:13:32;;;;;;;9.68;6.63;;;13.20;99.90;;;;;;4994834;28;20057;-65
2022/09/11 03:16:00;;;;;;;11.27;6.28;;;13.10;99.90;;;;;;4994955;28;20117;-67
2022/09/11 03:18:26;;;;;;;8.43;5.72;;;13.10;99.90;;;;;;4994603;28;20084;-65
2022/09/11 03:20:51;;;;;;;9.35;5.95;;;13.40;99.90;;;;;;4994829;28;20042;-65
2022/09/11 03:23:17;;;;;;;10.70;6.15;;;13.20;99.90;;;;;;4977077;28;20054;-66
2022/09/11 03:25:43;;;;;;;9.48;5.82;;;13.20;99.90;;;;;;4977144;28;20429;-66
2022/09/11 03:28:09;;;;;;;10.73;6.03;;;13.20;99.90;;;;;;4994273;28;20057;-65
2022/09/11 03:30:35;;;;;;;11.10;5.90;;;13.50;99.90;;;;;;4994367;28;20102;-65
2022/09/11 03:33:01;;;;;;;10.00;5.85;;;13.20;99.90;;;;;;4977056;28;20077;-65
2022/09/11 03:35:26;;;;;;;11.45;6.78;;;13.20;99.90;;;;;;4975590;28;20081;-65
2022/09/11 03:37:56;;;;;;;9.48;5.97;;;13.20;99.90;;;;;;4996323;28;20042;-65
2022/09/11 03:40:22;;;;;;;8.65;5.95;;;13.20;99.90;;;;;;5014041;28;20478;-66
2022/09/11 03:42:48;;;;;;;10.80;6.40;;;13.20;99.90;;;;;;5014142;28;20046;-65
2022/09/11 03:45:14;;;;;;;10.00;6.47;;;13.20;99.90;;;;;;5013702;28;20167;-66
2022/09/11 03:47:40;;;;;;;8.10;5.28;;;13.20;99.90;;;;;;4996186;28;20053;-65
2022/09/11 03:50:08;;;;;;;7.63;5.70;;;13.10;99.90;;;;;;4995897;28;20046;-65
2022/09/11 03:52:34;;;;;;;14.90;6.95;;;13.20;99.90;;;;;;5013675;28;20045;-66
2022/09/11 03:55:01;;;;;;;10.82;5.95;;;13.10;99.90;;;;;;5013510;28;20050;-66
2022/09/11 03:57:26;;;;;;;9.35;5.78;;;13.10;99.90;;;;;;5013841;28;20045;-65
2022/09/11 03:59:54;;;;;;;11.20;6.43;;;13.10;99.90;;;;;;4996237;28;20375;-66
2022/09/11 04:02:22;;;;;;;8.98;5.80;;;13.10;99.90;;;;;;5013708;28;20056;-66
2022/09/11 04:04:48;;;;;;;10.40;6.18;;;13.10;99.90;;;;;;5013437;28;20041;-65
2022/09/11 04:07:13;;;;;;;10.15;6.07;;;13.10;99.90;;;;;;4995784;28;20108;-66
2022/09/11 04:09:39;;;;;;;10.85;6.35;;;13.10;99.90;;;;;;5013503;28;20085;-65
2022/09/11 04:12:05;;;;;;;10.88;6.35;;;13.20;99.90;;;;;;4995939;28;20045;-65
2022/09/11 04:14:31;;;;;;;10.25;5.95;;;13.20;99.90;;;;;;5013557;28;20053;-66
2022/09/11 04:16:58;;;;;;;11.18;6.00;;;13.20;99.90;;;;;;5013565;28;20041;-66
2022/09/11 04:19:24;;;;;;;11.25;6.75;;;13.20;99.90;;;;;;4995645;28;20049;-66
2022/09/11 04:21:50;;;;;;;10.48;5.60;;;13.20;99.90;;;;;;4995647;28;20084;-65
2022/09/11 04:24:15;;;;;;;9.25;6.25;;;13.20;99.90;;;;;;5013532;28;20088;-65
2022/09/11 04:26:41;;;;;;;9.25;5.97;;;13.20;99.90;;;;;;5003861;28;20061;-65
2022/09/11 04:29:07;;;;;;;8.95;5.75;;;13.10;99.90;;;;;;5033089;28;20048;-66
2022/09/11 04:31:34;;;;;;;9.63;5.90;;;13.10;99.90;;;;;;5015095;28;20034;-66
2022/09/11 04:34:00;;;;;;;10.93;6.40;;;13.10;99.90;;;;;;5015015;28;20419;-66
2022/09/11 04:36:28;;;;;;;13.70;6.45;;;13.10;99.90;;;;;;5037577;28;20043;-65
2022/09/11 04:38:56;;;;;;;9.85;6.47;;;13.10;99.90;;;;;;5039706;28;20048;-66
2022/09/11 04:41:23;;;;;;;11.95;5.82;;;13.10;99.90;;;;;;5039397;28;20485;-66
2022/09/11 04:43:53;;;;;;;10.05;6.45;;;13.40;99.90;;;;;;5021835;28;20460;-66
2022/09/11 04:46:18;;;;;;;10.32;6.28;;;13.10;99.90;;;;;;5039329;28;20051;-65
2022/09/11 04:48:46;;;;;;;9.38;6.13;;;13.10;99.90;;;;;;5039367;28;20045;-65
2022/09/11 04:51:20;;;;;;;11.27;6.50;;;13.10;99.90;;;;;;5021638;28;20041;-66
2022/09/11 04:53:46;;;;;;;8.98;5.40;;;13.10;99.90;;;;;;5021564;28;20052;-65
2022/09/11 04:56:14;;;;;;;10.55;6.28;;;13.10;99.90;;;;;;5021391;28;20120;-66
2022/09/11 04:58:41;;;;;;;9.90;6.13;;;13.10;99.90;;;;;;5039509;28;20060;-65
2022/09/11 05:01:13;;;;;;;8.82;5.93;;;13.10;99.90;;;;;;5021429;28;20131;-65
2022/09/11 05:03:39;;;;;;;10.30;5.97;;;13.30;99.90;;;;;;5021370;28;20096;-66
2022/09/11 05:06:07;;;;;;;9.27;5.57;;;13.10;99.90;;;;;;5019580;28;20054;-65
2022/09/11 05:08:33;;;;;;;10.50;5.90;;;13.10;99.90;;;;;;5019581;28;20134;-66
2022/09/11 05:10:59;;;;;;;9.40;5.63;;;13.00;99.90;;;;;;5019427;28;20045;-66
2022/09/11 05:13:26;;;;;;;7.43;5.22;;;13.00;99.90;;;;;;5019302;28;20036;-66
2022/09/11 05:15:52;;;;;;;7.45;5.38;;;13.10;99.90;;;;;;5001963;28;20485;-66
2022/09/11 05:18:18;;;;;;;9.00;6.30;;;13.10;99.90;;;;;;5001826;28;20053;-66
2022/09/11 05:20:44;;;;;;;8.80;5.30;;;13.10;99.90;;;;;;5001814;28;20037;-66
2022/09/11 05:23:12;;;;;;;8.27;4.93;;;13.10;99.90;;;;;;5001729;28;20080;-66
2022/09/11 05:25:38;;;;;;;10.20;5.82;;;13.10;99.90;;;;;;5001882;28;20077;-66
2022/09/11 05:28:04;;;;;;;7.00;4.65;;;13.10;99.90;;;;;;5001520;28;20092;-66
2022/09/11 05:30:30;;;;;;;7.25;4.88;;;13.20;99.90;;;;;;5001544;28;20041;-66
2022/09/11 05:32:55;;;;;;;7.03;4.53;;;13.10;99.90;;;;;;5019093;28;20036;-66
2022/09/11 05:35:25;;;;;;;7.15;4.30;;;13.20;99.90;;;;;;5015521;28;20167;-66
2022/09/11 05:37:50;;;;;;;7.13;4.30;;;13.10;99.90;;;;;;5021637;28;20041;-66
2022/09/11 05:40:16;;;;;;;7.50;4.50;;;13.20;99.90;;;;;;5038713;28;20045;-66
2022/09/11 05:42:42;;;;;;;8.15;5.00;;;13.20;99.90;;;;;;4988521;28;20052;-66
2022/09/11 05:45:08;;;;;;;5.90;4.25;;;13.20;99.90;;;;;;5038769;28;20049;-66
2022/09/11 05:47:34;;;;;;;7.88;4.75;;;13.20;99.90;;;;;;5035756;28;20049;-66
2022/09/11 05:50:00;;;;;;;6.60;4.60;;;13.20;99.90;;;;;;5017875;28;20052;-66
2022/09/11 05:52:28;;;;;;;7.30;5.35;;;13.30;99.90;;;;;;5018015;28;20397;-66
2022/09/11 05:54:55;;;;;;;9.13;5.20;;;13.30;99.90;;;;;;5035859;28;20083;-66
2022/09/11 05:57:21;;;;;;;7.72;5.15;;;13.30;99.90;;;;;;5018060;28;20045;-66
2022/09/11 05:59:46;;;;;;;10.43;5.85;;;13.30;99.90;;;;;;5035710;28;20080;-66
2022/09/11 06:02:13;;;;;;;8.02;5.10;;;13.40;99.90;;;;;;5035735;28;20037;-66
2022/09/11 06:04:38;;;;;;;7.90;5.20;;;13.40;99.90;;;;;;5035643;28;20160;-66
2022/09/11 06:07:04;;;;;;;9.00;5.30;;;13.50;99.90;;;;;;5035686;28;20378;-66
2022/09/11 06:09:30;;;;;;;8.60;4.75;;;13.50;99.90;;;;;;5035394;28;20484;-66
2022/09/11 06:11:55;;;;;;;8.27;5.30;;;13.50;99.90;;;;;;5017538;28;20462;-66
2022/09/11 06:14:21;;;;;;;8.90;5.45;;;13.60;99.90;;;;;;5017768;28;20041;-66
2022/09/11 06:16:47;;;;;;;10.00;5.78;;;13.70;99.90;;;;;;5017802;28;20052;-66
2022/09/11 06:19:13;;;;;;;11.65;5.78;;;13.70;99.90;;;;;;5034947;28;20041;-66
2022/09/11 06:21:39;;;;;;;8.65;5.80;;;13.80;99.90;;;;;;5035345;28;20071;-66
2022/09/11 06:24:05;;;;;;;8.18;5.45;;;13.80;99.90;;;;;;5035350;28;20116;-66
2022/09/11 06:26:31;;;;;;;8.40;5.60;;;13.90;99.90;;;;;;5035097;28;20073;-66
2022/09/11 06:28:57;;;;;;;9.80;5.32;;;14.00;99.90;;;;;;5034928;28;20057;-66
2022/09/11 06:31:25;;;;;;;8.10;4.97;;;14.10;99.90;;;;;;5017454;28;20056;-66
2022/09/11 06:33:51;;;;;;;7.18;5.43;;;14.10;99.90;;;;;;5033026;28;20480;-66
2022/09/11 06:36:25;;;;;;;9.00;5.55;;;14.20;99.90;;;;;;5015266;28;20034;-66
2022/09/11 06:38:56;;;;;;;7.45;4.72;;;14.30;99.90;;;;;;4997474;28;20045;-66
2022/09/11 06:41:23;;;;;;;8.10;5.68;;;14.40;99.90;;;;;;5014763;28;20068;-66
2022/09/11 06:43:50;;;;;;;8.75;5.55;;;14.60;99.90;;;;;;4997523;28;20120;-66
2022/09/11 06:46:17;;;;;;;8.02;5.55;;;14.70;99.90;;;;;;5015039;28;20045;-66
2022/09/11 06:48:45;;;;;;;6.75;4.85;;;14.90;99.90;;;;;;5014814;28;20034;-66
2022/09/11 06:51:13;;;;;;;6.57;5.25;;;15.00;99.90;;;;;;5014634;28;20137;-66
2022/09/11 06:53:40;;;;;;;7.20;5.15;;;15.20;99.90;;;;;;5014867;28;20030;-66
2022/09/11 06:56:08;;;;;;;7.38;4.97;;;15.30;99.90;;;;;;5014534;28;20120;-66
2022/09/11 06:58:34;;;;;;;6.18;4.38;;;15.40;99.90;;;;;;5014512;28;20073;-66
2022/09/11 07:01:04;;;;;;;7.07;4.95;;;15.50;99.90;;;;;;4996966;28;20073;-66
2022/09/11 07:03:30;;;;;;;6.72;4.53;;;15.70;99.90;;;;;;4980720;28;20061;-66
2022/09/11 07:05:56;;;;;;;13.93;5.68;;;16.00;99.90;;;;;;5015723;28;20050;-66
2022/09/11 07:08:22;;;;;;;10.73;5.53;;;15.90;99.90;;;;;;5017029;28;20049;-66
2022/09/11 07:10:48;;;;;;;7.20;5.35;;;;;;;;;;5034309;28;20037;-66
2022/09/11 07:13:14;;;;;;;5.75;4.43;;;16.10;99.90;;;;;;5034058;28;20073;-66
2022/09/11 07:15:40;;;;;;;6.32;4.30;;;16.30;99.90;;;;;;5034343;28;20080;-66
2022/09/11 07:18:06;;;;;;;9.00;4.80;;;16.30;99.90;;;;;;5033981;28;20048;-66
2022/09/11 07:20:33;;;;;;;7.43;4.43;;;16.50;99.90;;;;;;5034008;28;20111;-68
2022/09/11 07:22:58;;;;;;;6.70;4.22;;;16.60;99.90;;;;;;5034198;28;20557;-66
2022/09/11 07:25:25;;;;;;;7.15;4.05;;;16.70;99.90;;;;;;5034050;28;20128;-66
2022/09/11 07:27:51;;;;;;;7.50;3.88;;;17.00;99.90;;;;;;5033450;28;20145;-66
2022/09/11 07:30:18;;;;;;;7.07;4.38;;;17.10;99.90;;;;;;5016140;28;20045;-66
2022/09/11 07:32:45;;;;;;;6.78;4.55;;;17.00;99.90;;;;;;5033813;28;20045;-67
2022/09/11 07:35:11;;;;;;;6.57;4.07;;;17.20;99.90;;;;;;5021098;28;20401;-66
2022/09/11 07:37:37;;;;;;;8.32;4.55;;;17.40;99.90;;;;;;5014017;28;20049;-66
2022/09/11 07:40:03;;;;;;;8.95;4.95;;;17.40;99.90;;;;;;4996077;28;20042;-66
2022/09/11 07:42:29;;;;;;;7.35;4.63;;;17.60;99.90;;;;;;4996053;28;20124;-66
2022/09/11 07:44:55;;;;;;;9.48;5.20;;;17.70;99.90;;;;;;4996040;28;20189;-66
2022/09/11 07:47:21;;;;;;;10.70;5.30;;;;;;;;;;4996125;28;20053;-67
2022/09/11 07:49:49;;;;;;;11.13;7.78;;;;;;;;;;5013588;28;20042;-66
2022/09/11 07:52:19;;;;;;;16.83;10.73;;;;;;;;;;5013674;28;20069;-66
2022/09/11 07:54:45;;;;;;;15.93;11.32;;;;;;;;;;4996308;28;20049;-66
2022/09/11 07:57:12;;;;;;;15.43;10.30;;;;;;;;;;5013552;28;20048;-66
2022/09/11 07:59:38;;;;;;;13.13;7.55;;;;;;;;;;4996012;28;20045;-66
2022/09/11 08:02:05;;;;;;;8.77;5.63;;;;;;;;;;4996180;28;20459;-66
2022/09/11 08:04:31;;;;;;;7.25;5.20;;;;;;;;;;5020883;28;20452;-66
2022/09/11 08:06:57;;;;;;;7.18;4.60;;;;;;;;;;5033126;28;20095;-66
2022/09/11 08:09:26;;;;;;;6.53;3.95;;;;;;;;;;5032987;28;20050;-66
2022/09/11 08:11:54;;;;;;;11.23;3.75;;;18.60;99.90;;;;;;5032619;28;20042;-66
2022/09/11 08:14:21;;;;;;;3.70;2.72;;;18.60;99.90;;;;;;5032949;28;20106;-66
2022/09/11 08:16:47;;;;;;;3.63;2.63;;;18.60;99.90;;;;;;5033010;28;20037;-66
2022/09/11 08:19:21;;;;;;;6.10;2.33;;;18.70;99.90;;;;;;5033260;28;20046;-66
2022/09/11 08:21:48;;;;;;;4.07;2.67;;;18.80;99.90;;;;;;5015603;28;20179;-66
2022/09/11 08:24:19;;;;;;;8.23;3.20;;;18.80;99.90;;;;;;5033159;28;20061;-67
2022/09/11 08:26:45;;;;;;;5.68;3.13;;;19.00;99.90;;;;;;5032756;28;20057;-65
2022/09/11 08:29:11;;;;;;;5.38;2.63;;;19.00;99.90;;;;;;5015101;28;20061;-66
2022/09/11 08:31:36;;;;;;;7.15;3.15;;;19.10;99.90;;;;;;5015420;28;20041;-66
2022/09/11 08:34:02;;;;;;;4.80;2.63;;;19.10;99.90;;;;;;5032728;28;20033;-67
2022/09/11 08:36:28;;;;;;;6.15;2.45;;;19.10;99.90;;;;;;5015111;28;20042;-66
2022/09/11 08:38:54;;;;;;;3.15;1.75;;;19.10;99.90;;;;;;5032997;28;20038;-66
2022/09/11 08:41:49;;;;;;;6.10;2.78;;;19.10;99.90;;;;;;5032672;28;20132;-66
2022/09/11 08:44:22;;;;;;;4.03;2.13;;;19.10;99.90;;;;;;5032903;28;20033;-66
2022/09/11 08:46:52;;;;;;;6.10;2.50;;;19.40;99.90;;;;;;5033071;28;20433;-66
2022/09/11 08:49:30;;;;;;;3.30;2.33;;;19.50;99.90;;;;;;5032605;28;20175;-67
2022/09/11 08:51:58;;;;;;;3.10;1.67;;;;;;;;;;5032887;28;20038;-66
2022/09/11 08:54:30;;;;;;;4.90;2.13;;;19.80;99.90;;;;;;5032577;28;20041;-66
2022/09/11 08:57:20;;;;;;;2.45;1.60;;;19.90;99.90;;;;;;4998776;28;20053;-66
2022/09/11 08:59:52;;;;;;;3.40;1.83;;;20.00;99.90;;;;;;5015106;28;20045;-66
2022/09/11 09:02:40;;;;;;;1.30;1.20;;;20.00;99.90;;;;;;5032403;28;20037;-67
2022/09/11 09:05:19;;;;;;;2.22;1.65;;;20.10;99.90;;;;;;4998485;28;20068;-66
2022/09/11 09:08:22;;;;;;;2.72;1.83;;;20.30;99.80;;;;;;5032789;28;20041;-66
2022/09/11 09:11:06;;;;;;;2.15;1.42;;;20.30;98.50;;;;;;5014599;28;20042;-66
2022/09/11 09:13:38;;;;;;;2.95;1.65;;;20.50;99.10;;;;;;5032641;28;20124;-66
2022/09/11 09:16:15;;;;;;;2.67;1.77;;;20.60;98.90;;;;;;5014874;28;20045;-66
2022/09/11 09:18:47;;;;;;;2.97;1.42;;;20.60;97.50;;;;;;5014824;28;20056;-66
2022/09/11 09:21:36;;;;;;;3.13;1.70;;;20.70;98.60;;;;;;5032317;28;20124;-67
2022/09/11 09:24:18;;;;;;;3.58;1.77;;;20.70;97.70;;;;;;5036327;28;20037;-66
2022/09/11 09:26:48;;;;;;;4.18;1.77;;;20.70;97.00;;;;;;5035933;28;20049;-67
2022/09/11 09:29:19;;;;;;;2.17;1.40;;;20.70;97.00;;;;;;5036211;28;20045;-67
2022/09/11 09:31:46;;;;;;;2.50;1.60;;;20.70;96.40;;;;;;5018216;28;20120;-67
2022/09/11 09:34:20;;;;;;;2.58;1.63;;;;;;;;;;5035891;28;20075;-67
2022/09/11 09:36:56;;;;;;;3.17;1.75;;;;;;;;;;5018235;28;20498;-66
2022/09/11 09:39:22;;;;;;;2.33;1.35;;;;;;;;;;5036031;28;20064;-66
2022/09/11 09:42:07;;;;;;;2.90;1.55;;;;;;;;;;5018547;28;20489;-67
2022/09/11 09:44:52;;;;;;;3.83;1.48;;;;;;;;;;5018007;28;20049;-66
2022/09/11 09:47:18;;;;;;;2.30;1.00;;;;;;;;;;5035878;28;20045;-66
2022/09/11 09:49:44;;;;;;;2.47;1.15;;;;;;;;;;5035878;28;20038;-66
2022/09/11 09:52:23;;;;;;;1.38;0.98;;;;;;;;;;5035689;28;20081;-67
2022/09/11 09:54:54;;;;;;;2.47;1.02;;;;;;;;;;5035720;28;20041;-66
2022/09/11 09:57:23;;;;;;;0.90;0.70;;;21.30;99.90;;;;;;5035456;28;20088;-67
2022/09/11 10:00:08;;;;;;;2.03;1.10;;;21.30;99.90;;;;;;5035387;28;20041;-67
2022/09/11 10:02:52;;;;;;;1.80;1.00;;;21.40;99.90;;;;;;5017652;28;20128;-67
2022/09/11 10:05:30;;;;;;;2.63;1.52;;;21.80;99.90;;;;;;5035175;28;20041;-67
2022/09/11 10:07:59;;;;;;;2.58;1.38;;;21.80;99.90;;;;;;5035608;28;20557;-67
2022/09/11 10:10:36;;;;;;;3.05;1.45;;;22.00;97.60;;;;;;5035182;28;20041;-67
2022/09/11 10:13:07;;;;;;;3.33;1.10;;;21.90;90.60;;;;;;5035200;28;20083;-67
2022/09/11 10:15:38;;;;;;;1.33;0.88;;;22.00;75.10;;;;;;5017475;28;20041;-67
2022/09/11 10:18:31;;;;;;;1.40;0.95;;;22.00;74.60;;;;;;5035487;28;20033;-67
2022/09/11 10:21:11;;;;;;;2.50;1.30;;;22.10;75.70;;;;;;5035041;28;20045;-66
2022/09/11 10:24:00;;;;;;;2.72;1.45;;;21.90;81.50;;;;;;5017284;28;20116;-67
2022/09/11 10:26:27;;;;;;;2.22;1.50;;;21.70;82.10;;;;;;5035014;28;20115;-66
2022/09/11 10:28:57;;;;;;;2.95;1.30;;;21.60;84.40;;;;;;5035302;28;20089;-66
2022/09/11 10:31:23;;;;;;;3.00;1.33;;;21.50;77.30;;;;;;5035061;28;20041;-66
2022/09/11 10:33:57;;;;;;;3.50;1.50;;;21.60;66.10;;;;;;5034043;28;20397;-67
2022/09/11 10:36:26;;;;;;;1.02;0.80;;;21.70;65.70;;;;;;5034851;28;20041;-67
2022/09/11 10:38:54;;;;;;;2.08;0.90;;;21.80;79.50;;;;;;5034768;28;20030;-66
2022/09/11 10:41:25;;;;;;;3.13;1.23;;;22.00;80.20;;;;;;5016987;28;20052;-67
2022/09/11 10:44:12;;;;;;;2.97;1.20;;;21.90;70.20;;;;;;5034541;28;20029;-66
2022/09/11 10:46:44;;;;;;;1.83;0.98;;;21.70;69.20;;;;;;5016638;28;20045;-66
2022/09/11 10:49:22;;;;;;;1.00;0.80;;;21.50;69.50;;;;;;5034125;28;20033;-67
2022/09/11 10:52:14;;;;;;;2.95;1.25;;;21.60;73.90;;;;;;5016696;28;20045;-67
2022/09/11 10:54:44;;;;;;;1.58;1.02;;;21.50;61.50;;;;;;5034426;28;20091;-67
2022/09/11 10:57:27;;;;;;;1.98;1.23;;;21.40;79.60;;;;;;5016375;28;20128;-66
2022/09/11 11:00:12;;;;;;;2.30;1.15;;;21.20;79.80;;;;;;5016510;28;20397;-66
2022/09/11 11:02:48;;;;;;;2.00;1.20;;;21.20;84.90;;;;;;5034012;28;20041;-66
2022/09/11 11:05:33;;;;;;;1.90;1.17;;;21.00;85.20;;;;;;5034412;28;20481;-66
2022/09/11 11:08:14;;;;;;;2.95;1.15;;;21.00;85.50;;;;;;5034123;28;20060;-66
2022/09/11 11:11:13;;;;;;;1.10;0.82;;;20.90;85.30;;;;;;5033975;28;20386;-66
2022/09/11 11:14:23;;;;;;;0.93;0.80;;;20.90;85.60;;;;;;5033889;28;20041;-67
2022/09/11 11:17:09;;;;;;;2.70;1.20;;;20.90;84.30;;;;;;4918468;29;20136;-67
2022/09/11 11:19:59;;;;;;;1.33;0.80;;;21.00;82.50;;;;;;5009126;28;20049;-66
2022/09/11 11:22:37;;;;;;;2.75;0.80;;;20.90;81.40;;;;;;5016273;28;20056;-66
2022/09/11 11:25:16;;;;;;;1.67;0.77;;;20.80;87.60;;;;;;5015885;28;20080;-67
2022/09/11 11:27:59;;;;;;;2.58;0.95;;;20.80;90.60;;;;;;5001429;28;20412;-67
2022/09/11 11:30:36;;;;;;;1.27;1.10;;;;;;;;;;4996029;28;20104;-66
2022/09/11 11:33:21;;;;;;;2.17;0.80;;;;;;;;;;4996304;28;20124;-67
2022/09/11 11:35:56;;;;;;;1.00;0.80;;;;;;;;;;5014452;28;20047;-67
2022/09/11 11:38:45;;;;;;;0.80;0.60;;;20.60;99.90;;;;;;4996524;28;20046;-66
2022/09/11 11:41:25;;;;;;;1.35;0.85;;;20.50;91.70;;;;;;5013735;28;20041;-66
2022/09/11 11:43:52;;;;;;;;;;;;;;;;;;4996519;28;20041;-66
2022/09/11 11:46:32;;;;;;;2.80;1.10;;;19.90;90.10;;;;;;5012753;28;19917;-66
2022/09/11 11:49:04;;;;;;;1.63;1.02;;;19.90;91.10;;;;;;4996154;28;20046;-66
2022/09/11 11:51:40;;;;;;;4.13;1.02;;;19.80;91.90;;;;;;5013773;28;20053;-66
2022/09/11 11:54:37;;;;;;;2.38;1.10;;;19.60;94.10;;;;;;5013573;28;20512;-66
2022/09/11 11:57:12;;;;;;;1.73;1.10;;;19.50;95.40;;;;;;4992586;28;20053;-67
2022/09/11 11:59:58;;;;;;;3.42;1.15;;;19.30;97.90;;;;;;4979723;28;20041;-66
2022/09/11 12:02:42;;;;;;;1.13;0.93;;;19.10;98.50;;;;;;5013767;28;20050;-66
2022/09/11 12:05:13;;;;;;;1.70;1.00;;;19.00;98.90;;;;;;5013783;28;20042;-66
2022/09/11 12:07:40;;;;;;;1.77;1.30;;;18.90;99.90;;;;;;5013741;28;20069;-66
2022/09/11 12:10:18;;;;;;;1.48;1.15;;;18.80;99.90;;;;;;5013264;28;20104;-67
2022/09/11 12:12:49;;;;;;;2.75;1.92;;;18.70;99.90;;;;;;4995812;28;20046;-67
2022/09/11 12:15:21;;;;;;;5.82;1.77;;;18.70;99.90;;;;;;4995713;28;20046;-67
2022/09/11 12:18:17;;;;;;;3.25;1.90;;;18.70;99.90;;;;;;4979636;28;20096;-67
2022/09/11 12:20:45;;;;;;;2.05;1.73;;;18.60;99.90;;;;;;5012797;28;20038;-67
2022/09/11 12:23:29;;;;;;;5.72;1.88;;;18.80;99.90;;;;;;4995585;28;20078;-67
2022/09/11 12:26:10;;;;;;;2.28;1.67;;;19.00;99.90;;;;;;4995618;28;20077;-64
2022/09/11 12:28:36;;;;;;;3.08;1.83;;;19.10;99.90;;;;;;5034811;28;20045;-66
2022/09/11 12:31:13;;;;;;;1.88;1.58;;;19.10;99.90;;;;;;5034958;28;20076;-67
2022/09/11 12:33:47;;;;;;;3.08;1.80;;;19.20;99.90;;;;;;5053134;28;20106;-67
2022/09/11 12:36:18;;;;;;;3.70;2.08;;;19.30;99.90;;;;;;5033176;28;20120;-67
2022/09/11 12:38:49;;;;;;;2.38;1.70;;;19.40;99.90;;;;;;5015483;28;20564;-67
2022/09/11 12:41:24;;;;;;;3.00;1.77;;;19.40;99.90;;;;;;5015452;28;20049;-67
2022/09/11 12:43:50;;;;;;;2.05;1.27;;;19.40;99.90;;;;;;4998647;28;20041;-66
2022/09/11 12:46:22;;;;;;;2.80;2.20;;;19.60;99.90;;;;;;5014896;28;20072;-67
2022/09/11 12:49:05;;;;;;;2.53;1.48;;;19.50;99.90;;;;;;5032639;28;20065;-65
2022/09/11 12:51:49;;;;;;;3.17;1.63;;;19.50;99.90;;;;;;5014988;28;20099;-65
2022/09/11 12:54:25;;;;;;;2.13;1.73;;;19.40;99.90;;;;;;5032587;28;20045;-65
2022/09/11 12:57:11;;;;;;;2.67;1.88;;;19.50;99.90;;;;;;5016439;28;20045;-65
2022/09/11 12:59:42;;;;;;;2.00;0.80;;;19.50;99.90;;;;;;5019114;28;20608;-65
2022/09/11 13:02:22;;;;;;;2.10;0.95;;;19.60;99.90;;;;;;5036719;28;20041;-65
2022/09/11 13:04:47;;;;;;;7.65;1.30;;;19.70;99.40;;;;;;5055747;28;20067;-65
2022/09/11 13:07:41;;;;;;;1.52;0.90;;;19.80;97.80;;;;;;5058659;28;20037;-65
2022/09/11 13:10:32;;;;;;;1.38;1.10;;;19.80;98.80;;;;;;5076219;28;20037;-65
2022/09/11 13:12:59;;;;;;;1.42;1.08;;;19.80;98.50;;;;;;5076206;28;20037;-65
2022/09/11 13:15:41;;;;;;;1.65;1.00;;;19.70;98.00;;;;;;5058451;28;20045;-65
2022/09/11 13:18:30;;;;;;;1.25;0.90;;;19.80;99.10;;;;;;5058231;28;20040;-65